createdAt,value
2024-02-22T00:00:07.461Z,2.20
2024-02-22T00:01:07.509Z,2.10
2024-02-22T00:02:07.509Z,2.20
2024-02-22T00:03:07.416Z,2.20
2024-02-22T00:04:07.446Z,2.10
2024-02-22T00:05:07.598Z,2.50
2024-02-22T00:06:07.418Z,2.20
2024-02-22T00:07:07.501Z,2.00
2024-02-22T00:08:07.428Z,2.40
2024-02-22T00:09:07.368Z,2.10
2024-02-22T00:10:07.353Z,2.10
2024-02-22T00:11:07.436Z,2.20
2024-02-22T00:12:07.411Z,2.00
2024-02-22T00:13:07.335Z,2.20
2024-02-22T00:14:07.378Z,2.10
2024-02-22T00:15:07.303Z,2.10
2024-02-22T00:16:07.317Z,2.20
2024-02-22T00:17:07.429Z,2.30
2024-02-22T00:18:07.302Z,2.10
2024-02-22T00:19:07.317Z,2.10
2024-02-22T00:20:07.274Z,2.40
2024-02-22T00:21:07.221Z,3.00
2024-02-22T00:22:07.249Z,3.50
2024-02-22T00:23:07.533Z,4.20
2024-02-22T00:24:07.209Z,4.80
2024-02-22T00:25:09.453Z,5.30
2024-02-22T00:26:07.254Z,5.50
2024-02-22T00:27:07.193Z,5.60
2024-02-22T00:28:07.181Z,5.20
2024-02-22T00:29:07.279Z,5.20
2024-02-22T00:30:07.153Z,5.00
2024-02-22T00:31:07.141Z,5.10
2024-02-22T00:32:07.189Z,5.00
2024-02-22T00:33:07.146Z,5.40
2024-02-22T00:34:07.131Z,5.40
2024-02-22T00:35:07.160Z,5.20
2024-02-22T00:36:07.150Z,5.40
2024-02-22T00:37:07.072Z,5.00
2024-02-22T00:38:07.089Z,4.30
2024-02-22T00:39:07.036Z,4.50
2024-02-22T00:40:07.044Z,4.00
2024-02-22T00:41:07.035Z,3.40
2024-02-22T00:42:07.054Z,2.70
2024-02-22T00:43:07.003Z,2.50
2024-02-22T00:44:07.032Z,2.20
2024-02-22T00:45:06.979Z,2.20
2024-02-22T00:46:06.985Z,2.00
2024-02-22T00:47:06.984Z,2.10
2024-02-22T00:48:07.074Z,2.00
2024-02-22T00:49:07.009Z,2.00
2024-02-22T00:50:07.077Z,2.10
2024-02-22T00:51:07.053Z,2.00
2024-02-22T00:52:09.286Z,2.30
2024-02-22T00:53:06.952Z,2.30
2024-02-22T00:54:06.892Z,2.10
2024-02-22T00:55:06.904Z,2.10
2024-02-22T00:56:06.905Z,1.80
2024-02-22T00:57:06.869Z,2.00
2024-02-22T00:58:09.588Z,2.20
2024-02-22T00:59:06.857Z,2.00
2024-02-22T01:00:07.361Z,1.90
2024-02-22T01:01:06.847Z,2.00
2024-02-22T01:02:06.898Z,2.00
2024-02-22T01:03:06.785Z,2.20
2024-02-22T01:04:06.803Z,1.90
2024-02-22T01:05:06.817Z,1.90
2024-02-22T01:06:06.766Z,1.70
2024-02-22T01:07:06.753Z,2.00
2024-02-22T01:08:06.784Z,2.40
2024-02-22T01:09:06.712Z,2.00
2024-02-22T01:10:06.736Z,1.70
2024-02-22T01:11:06.811Z,2.00
2024-02-22T01:12:06.801Z,1.90
2024-02-22T01:13:06.684Z,1.70
2024-02-22T01:14:06.701Z,2.00
2024-02-22T01:15:06.655Z,1.70
2024-02-22T01:16:06.676Z,2.10
2024-02-22T01:17:06.721Z,2.00
2024-02-22T01:18:06.980Z,2.00
2024-02-22T01:19:06.672Z,2.30
2024-02-22T01:20:06.696Z,1.90
2024-02-22T01:21:06.656Z,2.00
2024-02-22T01:22:06.612Z,1.80
2024-02-22T01:23:06.613Z,1.80
2024-02-22T01:24:06.575Z,2.50
2024-02-22T01:25:06.544Z,2.10
2024-02-22T01:26:06.704Z,1.90
2024-02-22T01:27:06.561Z,1.80
2024-02-22T01:28:06.523Z,1.90
2024-02-22T01:29:06.512Z,1.90
2024-02-22T01:30:06.493Z,1.60
2024-02-22T01:31:06.506Z,2.00
2024-02-22T01:32:06.523Z,1.90
2024-02-22T01:33:06.523Z,1.80
2024-02-22T01:34:06.480Z,1.70
2024-02-22T01:35:06.492Z,1.80
2024-02-22T01:36:06.444Z,1.90
2024-02-22T01:37:06.446Z,1.80
2024-02-22T01:38:06.474Z,1.80
2024-02-22T01:39:06.415Z,1.80
2024-02-22T01:40:06.416Z,1.70
2024-02-22T01:41:06.403Z,1.80
2024-02-22T01:42:06.397Z,1.70
2024-02-22T01:43:06.349Z,1.80
2024-02-22T01:44:06.403Z,1.90
2024-02-22T01:45:06.343Z,1.70
2024-02-22T01:46:06.329Z,1.70
2024-02-22T01:47:06.402Z,1.90
2024-02-22T01:48:06.382Z,1.70
2024-02-22T01:49:06.396Z,1.70
2024-02-22T01:50:06.305Z,1.70
2024-02-22T01:51:06.270Z,1.90
2024-02-22T01:52:06.308Z,1.80
2024-02-22T01:53:06.321Z,2.20
2024-02-22T01:54:06.255Z,1.90
2024-02-22T01:55:06.262Z,2.20
2024-02-22T01:56:06.267Z,1.60
2024-02-22T01:57:06.219Z,1.90
2024-02-22T01:58:06.212Z,1.70
2024-02-22T01:59:06.215Z,1.70
2024-02-22T02:00:06.186Z,1.70
2024-02-22T02:01:06.202Z,1.60
2024-02-22T02:02:06.230Z,1.60
2024-02-22T02:03:06.199Z,1.90
2024-02-22T02:04:06.170Z,1.80
2024-02-22T02:05:06.159Z,2.00
2024-02-22T02:06:06.138Z,2.30
2024-02-22T02:07:06.127Z,1.60
2024-02-22T02:08:06.126Z,1.70
2024-02-22T02:09:06.064Z,1.80
2024-02-22T02:10:06.094Z,1.60
2024-02-22T02:11:06.336Z,1.60
2024-02-22T02:12:06.122Z,1.60
2024-02-22T02:13:06.039Z,1.60
2024-02-22T02:14:06.074Z,1.80
2024-02-22T02:15:06.003Z,1.70
2024-02-22T02:16:06.001Z,1.60
2024-02-22T02:17:06.091Z,1.70
2024-02-22T02:18:06.054Z,1.60
2024-02-22T02:19:06.003Z,1.70
2024-02-22T02:20:06.093Z,1.50
2024-02-22T02:21:05.947Z,1.50
2024-02-22T02:22:05.974Z,1.60
2024-02-22T02:23:05.975Z,1.80
2024-02-22T02:24:05.931Z,1.60
2024-02-22T02:25:05.919Z,1.60
2024-02-22T02:26:06.062Z,1.80
2024-02-22T02:27:05.899Z,1.60
2024-02-22T02:28:05.875Z,1.50
2024-02-22T02:29:05.934Z,1.60
2024-02-22T02:30:05.871Z,1.60
2024-02-22T02:31:05.863Z,1.70
2024-02-22T02:32:05.907Z,1.60
2024-02-22T02:33:05.920Z,1.60
2024-02-22T02:34:05.873Z,1.80
2024-02-22T02:35:05.827Z,2.00
2024-02-22T02:36:05.811Z,1.80
2024-02-22T02:37:05.806Z,1.60
2024-02-22T02:38:05.798Z,1.60
2024-02-22T02:39:05.752Z,1.40
2024-02-22T02:40:05.764Z,1.60
2024-02-22T02:41:05.757Z,1.60
2024-02-22T02:42:05.737Z,1.70
2024-02-22T02:43:05.735Z,1.50
2024-02-22T02:44:05.755Z,1.50
2024-02-22T02:45:05.697Z,1.50
2024-02-22T02:46:05.695Z,1.50
2024-02-22T02:47:05.687Z,1.30
2024-02-22T02:48:05.729Z,1.50
2024-02-22T02:49:05.681Z,1.50
2024-02-22T02:50:05.687Z,1.40
2024-02-22T02:51:05.626Z,1.50
2024-02-22T02:52:05.625Z,1.80
2024-02-22T02:53:05.686Z,1.80
2024-02-22T02:54:05.611Z,1.60
2024-02-22T02:55:05.615Z,1.40
2024-02-22T02:56:05.678Z,1.40
2024-02-22T02:57:05.566Z,1.40
2024-02-22T02:58:05.580Z,1.40
2024-02-22T02:59:05.622Z,1.70
2024-02-22T03:00:05.552Z,1.70
2024-02-22T03:01:05.554Z,1.60
2024-02-22T03:02:05.589Z,2.50
2024-02-22T03:03:05.532Z,1.50
2024-02-22T03:04:05.547Z,1.60
2024-02-22T03:05:05.554Z,1.60
2024-02-22T03:06:05.582Z,1.40
2024-02-22T03:07:05.452Z,1.40
2024-02-22T03:08:05.536Z,1.30
2024-02-22T03:09:05.438Z,1.30
2024-02-22T03:10:05.437Z,1.30
2024-02-22T03:11:05.555Z,2.40
2024-02-22T03:12:05.491Z,1.60
2024-02-22T03:13:05.414Z,1.70
2024-02-22T03:14:05.463Z,1.30
2024-02-22T03:15:05.398Z,1.20
2024-02-22T03:16:05.388Z,1.30
2024-02-22T03:17:05.389Z,1.60
2024-02-22T03:18:05.437Z,1.20
2024-02-22T03:19:05.444Z,1.50
2024-02-22T03:20:05.348Z,1.30
2024-02-22T03:21:05.311Z,1.30
2024-02-22T03:22:05.317Z,1.20
2024-02-22T03:23:05.372Z,1.30
2024-02-22T03:24:05.317Z,1.40
2024-02-22T03:25:05.272Z,1.80
2024-02-22T03:26:05.300Z,1.30
2024-02-22T03:27:05.262Z,3.30
2024-02-22T03:28:05.263Z,1.80
2024-02-22T03:29:05.322Z,1.20
2024-02-22T03:30:05.213Z,2.00
2024-02-22T03:31:05.217Z,1.50
2024-02-22T03:32:05.258Z,2.10
2024-02-22T03:33:05.297Z,1.10
2024-02-22T03:34:05.204Z,1.20
2024-02-22T03:35:05.213Z,1.20
2024-02-22T03:36:05.172Z,1.30
2024-02-22T03:37:05.150Z,1.90
2024-02-22T03:38:05.176Z,1.30
2024-02-22T03:39:05.112Z,1.20
2024-02-22T03:40:05.121Z,1.10
2024-02-22T03:41:05.142Z,1.00
2024-02-22T03:42:05.115Z,1.00
2024-02-22T03:43:05.105Z,1.00
2024-02-22T03:44:05.135Z,1.50
2024-02-22T03:45:05.055Z,1.10
2024-02-22T03:46:05.058Z,1.30
2024-02-22T03:47:05.076Z,2.00
2024-02-22T03:48:05.061Z,1.50
2024-02-22T03:49:05.078Z,1.20
2024-02-22T03:50:05.060Z,1.10
2024-02-22T03:51:04.978Z,1.10
2024-02-22T03:52:04.982Z,2.10
2024-02-22T03:53:05.037Z,1.30
2024-02-22T03:54:04.980Z,1.20
2024-02-22T03:55:04.968Z,1.10
2024-02-22T03:56:04.981Z,1.20
2024-02-22T03:57:04.928Z,1.20
2024-02-22T03:58:04.939Z,1.30
2024-02-22T03:59:04.970Z,1.10
2024-02-22T04:00:04.914Z,1.20
2024-02-22T04:01:04.964Z,1.10
2024-02-22T04:02:04.940Z,1.60
2024-02-22T04:03:04.870Z,1.20
2024-02-22T04:04:05.168Z,1.00
2024-02-22T04:05:04.976Z,1.10
2024-02-22T04:06:04.860Z,1.10
2024-02-22T04:07:04.825Z,1.10
2024-02-22T04:08:04.915Z,1.10
2024-02-22T04:09:04.828Z,1.40
2024-02-22T04:10:04.807Z,1.30
2024-02-22T04:11:04.857Z,1.10
2024-02-22T04:12:04.831Z,1.00
2024-02-22T04:13:04.810Z,1.10
2024-02-22T04:14:04.800Z,1.30
2024-02-22T04:15:04.797Z,1.10
2024-02-22T04:16:04.737Z,1.20
2024-02-22T04:17:04.744Z,1.20
2024-02-22T04:18:04.792Z,1.10
2024-02-22T04:19:04.758Z,1.30
2024-02-22T04:20:04.766Z,1.10
2024-02-22T04:21:04.690Z,1.20
2024-02-22T04:22:04.669Z,1.20
2024-02-22T04:23:05.692Z,1.30
2024-02-22T04:24:04.666Z,1.30
2024-02-22T04:25:04.636Z,1.20
2024-02-22T04:26:04.670Z,1.10
2024-02-22T04:27:04.624Z,1.10
2024-02-22T04:28:04.615Z,1.10
2024-02-22T04:29:04.645Z,1.20
2024-02-22T04:30:04.603Z,1.00
2024-02-22T04:31:04.568Z,1.20
2024-02-22T04:32:04.629Z,1.20
2024-02-22T04:33:04.663Z,1.10
2024-02-22T04:34:05.178Z,1.10
2024-02-22T04:35:04.651Z,1.50
2024-02-22T04:36:04.672Z,1.10
2024-02-22T04:37:04.514Z,1.20
2024-02-22T04:38:04.637Z,1.20
2024-02-22T04:39:04.553Z,1.20
2024-02-22T04:40:04.542Z,1.20
2024-02-22T04:41:04.502Z,1.10
2024-02-22T04:42:04.470Z,1.00
2024-02-22T04:43:04.531Z,1.30
2024-02-22T04:44:04.518Z,1.30
2024-02-22T04:45:04.441Z,1.30
2024-02-22T04:46:04.437Z,1.20
2024-02-22T04:47:04.481Z,1.20
2024-02-22T04:48:06.171Z,1.10
2024-02-22T04:49:04.425Z,1.30
2024-02-22T04:50:04.441Z,1.00
2024-02-22T04:51:04.385Z,1.20
2024-02-22T04:52:04.472Z,1.20
2024-02-22T04:53:04.413Z,1.00
2024-02-22T04:54:04.352Z,1.10
2024-02-22T04:55:04.549Z,1.10
2024-02-22T04:56:04.372Z,1.00
2024-02-22T04:57:04.320Z,2.10
2024-02-22T04:58:04.317Z,1.30
2024-02-22T04:59:04.350Z,1.20
2024-02-22T05:00:04.320Z,1.30
2024-02-22T05:01:04.305Z,1.20
2024-02-22T05:02:04.364Z,1.30
2024-02-22T05:03:04.287Z,1.00
2024-02-22T05:04:04.272Z,1.20
2024-02-22T05:05:04.228Z,1.20
2024-02-22T05:06:04.243Z,1.10
2024-02-22T05:07:04.211Z,1.10
2024-02-22T05:08:04.257Z,1.20
2024-02-22T05:09:04.189Z,1.10
2024-02-22T05:10:04.188Z,1.00
2024-02-22T05:11:04.220Z,1.00
2024-02-22T05:12:04.227Z,1.00
2024-02-22T05:13:04.170Z,1.20
2024-02-22T05:14:04.177Z,1.00
2024-02-22T05:15:04.122Z,1.20
2024-02-22T05:16:04.117Z,1.30
2024-02-22T05:17:04.165Z,1.10
2024-02-22T05:18:04.187Z,1.20
2024-02-22T05:19:04.153Z,1.30
2024-02-22T05:20:04.124Z,1.40
2024-02-22T05:21:04.058Z,1.40
2024-02-22T05:22:04.056Z,1.10
2024-02-22T05:23:04.104Z,1.30
2024-02-22T05:24:04.032Z,1.20
2024-02-22T05:25:04.027Z,1.30
2024-02-22T05:26:04.032Z,1.20
2024-02-22T05:27:03.994Z,1.30
2024-02-22T05:28:04.005Z,1.20
2024-02-22T05:29:04.023Z,1.20
2024-02-22T05:30:03.967Z,1.40
2024-02-22T05:31:03.961Z,1.40
2024-02-22T05:32:04.026Z,1.40
2024-02-22T05:33:04.011Z,1.30
2024-02-22T05:34:04.037Z,1.30
2024-02-22T05:35:04.030Z,1.30
2024-02-22T05:36:03.953Z,1.40
2024-02-22T05:37:03.883Z,1.40
2024-02-22T05:38:03.989Z,1.30
2024-02-22T05:39:03.884Z,1.30
2024-02-22T05:40:03.891Z,1.30
2024-02-22T05:41:03.956Z,1.30
2024-02-22T05:42:03.845Z,1.10
2024-02-22T05:43:03.856Z,1.20
2024-02-22T05:44:03.893Z,1.20
2024-02-22T05:45:03.831Z,1.30
2024-02-22T05:46:03.803Z,1.30
2024-02-22T05:47:03.828Z,1.40
2024-02-22T05:48:03.931Z,1.30
2024-02-22T05:49:03.913Z,1.30
2024-02-22T05:50:03.775Z,1.20
2024-02-22T05:51:03.744Z,1.30
2024-02-22T05:52:03.751Z,1.50
2024-02-22T05:53:03.913Z,1.40
2024-02-22T05:54:03.712Z,1.50
2024-02-22T05:55:03.710Z,1.50
2024-02-22T05:56:03.760Z,1.50
2024-02-22T05:57:03.676Z,1.40
2024-02-22T05:58:03.698Z,1.40
2024-02-22T05:59:03.695Z,1.40
2024-02-22T06:00:03.654Z,1.30
2024-02-22T06:01:03.757Z,1.40
2024-02-22T06:02:03.860Z,1.40
2024-02-22T06:03:06.924Z,1.30
2024-02-22T06:04:03.692Z,1.30
2024-02-22T06:05:03.871Z,1.10
2024-02-22T06:06:03.636Z,1.30
2024-02-22T06:07:03.603Z,1.30
2024-02-22T06:08:03.622Z,1.20
2024-02-22T06:09:03.600Z,1.10
2024-02-22T06:10:03.551Z,1.40
2024-02-22T06:11:03.595Z,1.20
2024-02-22T06:12:03.585Z,1.30
2024-02-22T06:13:03.548Z,1.40
2024-02-22T06:14:03.557Z,1.50
2024-02-22T06:15:03.548Z,1.70
2024-02-22T06:16:03.487Z,1.30
2024-02-22T06:17:03.500Z,1.50
2024-02-22T06:18:03.769Z,1.80
2024-02-22T06:19:03.499Z,1.40
2024-02-22T06:20:03.576Z,1.20
2024-02-22T06:21:03.436Z,1.30
2024-02-22T06:22:03.532Z,1.50
2024-02-22T06:23:03.498Z,1.40
2024-02-22T06:24:03.405Z,1.30
2024-02-22T06:25:03.447Z,1.30
2024-02-22T06:26:09.429Z,1.70
2024-02-22T06:27:03.376Z,1.50
2024-02-22T06:28:03.372Z,1.30
2024-02-22T06:29:03.482Z,1.30
2024-02-22T06:30:03.456Z,1.60
2024-02-22T06:31:03.461Z,1.60
2024-02-22T06:32:03.483Z,1.60
2024-02-22T06:33:03.487Z,1.40
2024-02-22T06:34:03.467Z,1.40
2024-02-22T06:35:03.397Z,1.20
2024-02-22T06:36:03.394Z,1.40
2024-02-22T06:37:04.786Z,1.30
2024-02-22T06:38:03.423Z,1.40
2024-02-22T06:39:03.264Z,1.40
2024-02-22T06:40:03.390Z,1.40
2024-02-22T06:41:03.264Z,1.20
2024-02-22T06:42:03.251Z,1.30
2024-02-22T06:43:03.269Z,1.20
2024-02-22T06:44:03.325Z,1.30
2024-02-22T06:45:03.173Z,1.40
2024-02-22T06:46:03.237Z,1.50
2024-02-22T06:47:03.292Z,1.50
2024-02-22T06:48:03.436Z,1.40
2024-02-22T06:49:03.158Z,1.40
2024-02-22T06:50:03.194Z,1.40
2024-02-22T06:51:03.157Z,1.30
2024-02-22T06:52:04.541Z,1.40
2024-02-22T06:53:03.142Z,1.30
2024-02-22T06:54:03.689Z,1.20
2024-02-22T06:55:03.119Z,1.50
2024-02-22T06:56:03.150Z,1.50
2024-02-22T06:57:03.050Z,1.40
2024-02-22T06:58:03.092Z,1.40
2024-02-22T06:59:03.084Z,1.40
2024-02-22T07:00:03.040Z,1.30
2024-02-22T07:01:03.056Z,1.50
2024-02-22T07:02:03.042Z,1.50
2024-02-22T07:03:05.610Z,1.60
2024-02-22T07:04:03.042Z,1.30
2024-02-22T07:05:03.074Z,1.30
2024-02-22T07:06:02.981Z,1.50
2024-02-22T07:07:03.175Z,1.50
2024-02-22T07:08:03.054Z,1.30
2024-02-22T07:09:02.930Z,1.40
2024-02-22T07:10:02.939Z,1.40
2024-02-22T07:11:03.011Z,1.50
2024-02-22T07:12:03.047Z,1.60
2024-02-22T07:13:02.910Z,1.40
2024-02-22T07:14:03.005Z,1.50
2024-02-22T07:15:02.917Z,1.60
2024-02-22T07:16:02.897Z,1.60
2024-02-22T07:17:02.887Z,1.50
2024-02-22T07:18:02.960Z,1.50
2024-02-22T07:19:02.905Z,1.40
2024-02-22T07:20:02.832Z,1.60
2024-02-22T07:21:02.815Z,1.40
2024-02-22T07:22:02.824Z,1.60
2024-02-22T07:23:02.886Z,1.30
2024-02-22T07:24:02.793Z,1.30
2024-02-22T07:25:02.771Z,1.40
2024-02-22T07:26:02.855Z,1.50
2024-02-22T07:27:02.748Z,1.30
2024-02-22T07:28:02.762Z,1.70
2024-02-22T07:29:02.821Z,1.50
2024-02-22T07:30:02.773Z,1.50
2024-02-22T07:31:02.710Z,1.40
2024-02-22T07:32:02.728Z,1.60
2024-02-22T07:33:02.894Z,1.40
2024-02-22T07:34:02.854Z,1.60
2024-02-22T07:35:02.699Z,1.40
2024-02-22T07:36:02.675Z,1.40
2024-02-22T07:37:02.654Z,1.50
2024-02-22T07:38:02.692Z,1.70
2024-02-22T07:39:02.636Z,1.70
2024-02-22T07:40:02.634Z,1.70
2024-02-22T07:41:02.646Z,1.60
2024-02-22T07:42:02.604Z,1.40
2024-02-22T07:43:02.607Z,1.60
2024-02-22T07:44:02.624Z,1.40
2024-02-22T07:45:02.597Z,1.70
2024-02-22T07:46:02.584Z,1.40
2024-02-22T07:47:02.563Z,1.50
2024-02-22T07:48:02.656Z,1.90
2024-02-22T07:49:02.582Z,1.60
2024-02-22T07:50:02.609Z,1.60
2024-02-22T07:51:02.527Z,1.40
2024-02-22T07:52:02.545Z,1.50
2024-02-22T07:53:02.553Z,1.60
2024-02-22T07:54:02.468Z,1.30
2024-02-22T07:55:02.465Z,1.60
2024-02-22T07:56:02.505Z,1.50
2024-02-22T07:57:02.439Z,1.40
2024-02-22T07:58:02.479Z,1.50
2024-02-22T07:59:02.429Z,1.60
2024-02-22T08:00:02.413Z,1.60
2024-02-22T08:01:02.518Z,1.60
2024-02-22T08:02:02.973Z,1.70
2024-02-22T08:03:02.485Z,1.60
2024-02-22T08:04:02.495Z,1.80
2024-02-22T08:05:02.628Z,1.90
2024-02-22T08:06:02.382Z,1.50
2024-02-22T08:07:02.428Z,1.50
2024-02-22T08:08:02.435Z,1.70
2024-02-22T08:09:02.325Z,1.60
2024-02-22T08:10:02.312Z,1.50
2024-02-22T08:11:02.387Z,1.80
2024-02-22T08:12:02.367Z,1.70
2024-02-22T08:13:02.786Z,1.70
2024-02-22T08:14:02.328Z,2.00
2024-02-22T08:15:02.249Z,2.00
2024-02-22T08:16:02.277Z,1.90
2024-02-22T08:17:02.306Z,2.00
2024-02-22T08:18:02.300Z,2.00
2024-02-22T08:19:02.233Z,2.00
2024-02-22T08:20:02.405Z,1.80
2024-02-22T08:21:02.404Z,2.40
2024-02-22T08:22:02.178Z,2.10
2024-02-22T08:23:02.244Z,2.10
2024-02-22T08:24:02.170Z,2.30
2024-02-22T08:25:02.158Z,2.10
2024-02-22T08:26:02.270Z,2.20
2024-02-22T08:27:02.162Z,2.60
2024-02-22T08:28:07.224Z,2.80
2024-02-22T08:29:02.178Z,2.60
2024-02-22T08:30:02.103Z,2.20
2024-02-22T08:31:02.091Z,2.30
2024-02-22T08:32:02.150Z,2.60
2024-02-22T08:33:02.224Z,2.30
2024-02-22T08:34:02.176Z,2.40
2024-02-22T08:35:02.112Z,2.40
2024-02-22T08:36:02.031Z,2.10
2024-02-22T08:37:02.037Z,2.20
2024-02-22T08:38:02.124Z,2.20
2024-02-22T08:39:02.043Z,2.40
2024-02-22T08:40:09.364Z,2.20
2024-02-22T08:41:02.025Z,2.20
2024-02-22T08:42:01.974Z,2.20
2024-02-22T08:43:02.026Z,2.30
2024-02-22T08:44:02.063Z,2.20
2024-02-22T08:45:01.958Z,2.30
2024-02-22T08:46:01.948Z,2.10
2024-02-22T08:47:01.921Z,2.10
2024-02-22T08:48:02.077Z,2.40
2024-02-22T08:49:01.928Z,2.60
2024-02-22T08:50:01.996Z,2.60
2024-02-22T08:51:01.905Z,2.20
2024-02-22T08:52:01.878Z,2.50
2024-02-22T08:53:01.970Z,2.20
2024-02-22T08:54:01.853Z,2.20
2024-02-22T08:55:01.850Z,2.30
2024-02-22T08:56:01.903Z,2.40
2024-02-22T08:57:01.813Z,2.60
2024-02-22T08:58:02.418Z,2.60
2024-02-22T08:59:01.857Z,2.60
2024-02-22T09:00:01.839Z,2.70
2024-02-22T09:01:02.465Z,2.50
2024-02-22T09:02:01.838Z,2.80
2024-02-22T09:03:01.840Z,2.50
2024-02-22T09:04:01.832Z,2.70
2024-02-22T09:05:03.114Z,2.70
2024-02-22T09:06:01.953Z,2.60
2024-02-22T09:07:01.915Z,2.60
2024-02-22T09:08:01.946Z,2.60
2024-02-22T09:09:01.697Z,2.80
2024-02-22T09:10:02.296Z,2.80
2024-02-22T09:11:01.749Z,2.60
2024-02-22T09:12:01.942Z,2.50
2024-02-22T09:13:01.722Z,2.70
2024-02-22T09:14:01.823Z,2.60
2024-02-22T09:15:01.649Z,2.80
2024-02-22T09:16:01.638Z,2.50
2024-02-22T09:17:01.660Z,2.60
2024-02-22T09:18:01.747Z,2.70
2024-02-22T09:19:01.688Z,3.00
2024-02-22T09:20:01.659Z,2.90
2024-02-22T09:21:01.671Z,2.70
2024-02-22T09:22:01.571Z,2.60
2024-02-22T09:23:01.605Z,2.70
2024-02-22T09:24:01.585Z,2.90
2024-02-22T09:25:01.523Z,2.70
2024-02-22T09:26:01.681Z,2.50
2024-02-22T09:27:01.523Z,2.80
2024-02-22T09:28:01.517Z,2.70
2024-02-22T09:29:01.539Z,2.80
2024-02-22T09:30:01.529Z,2.90
2024-02-22T09:31:01.463Z,3.50
2024-02-22T09:32:01.494Z,3.40
2024-02-22T09:33:01.525Z,3.20
2024-02-22T09:34:01.529Z,3.20
2024-02-22T09:35:01.582Z,3.20
2024-02-22T09:36:01.487Z,3.30
2024-02-22T09:37:01.469Z,3.60
2024-02-22T09:38:03.699Z,3.20
2024-02-22T09:39:01.416Z,3.40
2024-02-22T09:40:01.394Z,3.70
2024-02-22T09:41:01.402Z,3.30
2024-02-22T09:42:01.365Z,3.00
2024-02-22T09:43:01.345Z,3.30
2024-02-22T09:44:01.438Z,3.10
2024-02-22T09:45:01.311Z,3.00
2024-02-22T09:46:01.356Z,3.20
2024-02-22T09:47:01.313Z,3.20
2024-02-22T09:48:01.503Z,2.90
2024-02-22T09:49:01.311Z,3.10
2024-02-22T09:50:01.385Z,3.20
2024-02-22T09:51:01.271Z,3.10
2024-02-22T09:52:01.264Z,3.30
2024-02-22T09:53:01.322Z,3.30
2024-02-22T09:54:01.265Z,3.10
2024-02-22T09:55:01.234Z,3.30
2024-02-22T09:56:01.267Z,3.40
2024-02-22T09:57:01.184Z,3.50
2024-02-22T09:58:01.225Z,3.40
2024-02-22T09:59:01.265Z,3.70
2024-02-22T10:00:01.200Z,3.50
2024-02-22T10:01:01.186Z,3.70
2024-02-22T10:02:01.231Z,3.30
2024-02-22T10:03:01.181Z,3.50
2024-02-22T10:04:01.144Z,3.60
2024-02-22T10:05:01.229Z,3.40
2024-02-22T10:06:01.378Z,3.10
2024-02-22T10:07:01.135Z,3.70
2024-02-22T10:08:01.157Z,3.50
2024-02-22T10:09:01.094Z,3.90
2024-02-22T10:10:01.099Z,4.10
2024-02-22T10:11:01.211Z,3.70
2024-02-22T10:12:01.512Z,3.80
2024-02-22T10:13:01.830Z,3.90
2024-02-22T10:14:01.733Z,3.90
2024-02-22T10:15:02.633Z,3.60
2024-02-22T10:16:01.036Z,3.50
2024-02-22T10:17:01.043Z,3.60
2024-02-22T10:18:01.103Z,3.60
2024-02-22T10:19:01.022Z,3.70
2024-02-22T10:20:01.251Z,3.60
2024-02-22T10:21:00.979Z,3.80
2024-02-22T10:22:00.967Z,3.90
2024-02-22T10:23:01.748Z,3.70
2024-02-22T10:24:00.945Z,4.80
2024-02-22T10:25:00.925Z,4.10
2024-02-22T10:26:01.611Z,4.10
2024-02-22T10:27:00.905Z,4.80
2024-02-22T10:28:01.003Z,4.20
2024-02-22T10:29:01.001Z,4.30
2024-02-22T10:30:00.860Z,3.80
2024-02-22T10:31:00.862Z,3.90
2024-02-22T10:32:01.378Z,4.40
2024-02-22T10:33:01.082Z,4.70
2024-02-22T10:34:00.930Z,4.30
2024-02-22T10:35:00.880Z,4.10
2024-02-22T10:36:00.817Z,4.60
2024-02-22T10:37:00.811Z,4.30
2024-02-22T10:38:00.828Z,4.80
2024-02-22T10:39:00.764Z,5.10
2024-02-22T10:40:03.685Z,5.40
2024-02-22T10:41:00.814Z,5.20
2024-02-22T10:42:00.786Z,4.80
2024-02-22T10:43:00.754Z,4.80
2024-02-22T10:44:02.276Z,5.00
2024-02-22T10:45:00.729Z,5.60
2024-02-22T10:46:00.723Z,5.80
2024-02-22T10:47:00.806Z,5.80
2024-02-22T10:48:00.863Z,5.90
2024-02-22T10:49:00.797Z,5.90
2024-02-22T10:50:00.760Z,5.30
2024-02-22T10:51:00.650Z,5.80
2024-02-22T10:52:00.636Z,5.70
2024-02-22T10:53:00.663Z,6.10
2024-02-22T10:54:00.618Z,5.60
2024-02-22T10:55:00.668Z,5.90
2024-02-22T10:56:00.654Z,5.50
2024-02-22T10:57:00.572Z,5.40
2024-02-22T10:58:00.606Z,4.30
2024-02-22T10:59:00.667Z,3.90
2024-02-22T11:00:00.574Z,4.30
2024-02-22T11:01:00.556Z,4.40
2024-02-22T11:02:00.556Z,4.40
2024-02-22T11:03:00.573Z,4.60
2024-02-22T11:04:00.671Z,4.30
2024-02-22T11:05:00.499Z,4.40
2024-02-22T11:06:00.515Z,4.40
2024-02-22T11:07:00.758Z,4.70
2024-02-22T11:08:00.542Z,4.80
2024-02-22T11:09:00.474Z,3.90
2024-02-22T11:10:00.471Z,3.70
2024-02-22T11:11:02.082Z,3.60
2024-02-22T11:12:00.572Z,3.90
2024-02-22T11:13:00.441Z,3.80
2024-02-22T11:14:00.568Z,3.60
2024-02-22T11:15:00.425Z,3.60
2024-02-22T11:16:00.392Z,3.60
2024-02-22T11:17:00.589Z,3.30
2024-02-22T11:18:00.537Z,3.30
2024-02-22T11:19:00.436Z,3.50
2024-02-22T11:20:00.404Z,3.10
2024-02-22T11:21:01.332Z,3.70
2024-02-22T11:22:00.398Z,3.70
2024-02-22T11:23:00.393Z,3.60
2024-02-22T11:24:00.851Z,3.20
2024-02-22T11:25:00.297Z,3.00
2024-02-22T11:26:00.441Z,3.40
2024-02-22T11:27:00.463Z,3.50
2024-02-22T11:28:00.394Z,3.90
2024-02-22T11:29:00.280Z,3.50
2024-02-22T11:30:00.324Z,3.40
2024-02-22T11:31:00.269Z,3.60
2024-02-22T11:32:00.301Z,3.50
2024-02-22T11:33:00.354Z,3.40
2024-02-22T11:34:00.227Z,3.30
2024-02-22T11:35:00.396Z,3.30
2024-02-22T11:36:00.178Z,3.10
2024-02-22T11:37:00.183Z,3.00
2024-02-22T11:38:00.214Z,3.00
2024-02-22T11:39:00.176Z,3.00
2024-02-22T11:40:00.223Z,3.20
2024-02-22T11:41:00.174Z,3.20
2024-02-22T11:42:00.136Z,3.10
2024-02-22T11:43:00.152Z,3.00
2024-02-22T11:44:00.159Z,2.90
2024-02-22T11:45:00.123Z,2.80
2024-02-22T11:46:00.119Z,2.70
2024-02-22T11:47:00.122Z,2.90
2024-02-22T11:48:00.821Z,2.90
2024-02-22T11:49:00.082Z,3.20
2024-02-22T11:50:00.173Z,3.20
2024-02-22T11:51:00.059Z,2.90
2024-02-22T11:52:00.053Z,2.80
2024-02-22T11:53:00.980Z,2.70
2024-02-22T11:53:59.992Z,2.80
2024-02-22T11:55:00.017Z,2.80
2024-02-22T11:56:00.008Z,3.20
2024-02-22T11:56:59.992Z,2.70
2024-02-22T11:58:00.051Z,2.50
2024-02-22T11:59:00.019Z,3.00
2024-02-22T11:59:59.965Z,3.30
2024-02-22T12:00:59.998Z,3.10
2024-02-22T12:01:59.975Z,3.40
2024-02-22T12:02:59.949Z,2.60
2024-02-22T12:03:59.916Z,2.20
2024-02-22T12:04:59.972Z,2.50
2024-02-22T12:06:00.906Z,2.50
2024-02-22T12:06:59.985Z,2.50
2024-02-22T12:07:59.928Z,2.60
2024-02-22T12:08:59.831Z,2.80
2024-02-22T12:09:59.841Z,3.00
2024-02-22T12:10:59.957Z,2.40
2024-02-22T12:11:59.984Z,2.80
2024-02-22T12:12:59.863Z,3.00
2024-02-22T12:13:59.998Z,2.70
2024-02-22T12:14:59.830Z,2.40
2024-02-22T12:15:59.791Z,2.50
2024-02-22T12:16:59.783Z,2.20
2024-02-22T12:17:59.820Z,2.20
2024-02-22T12:18:59.812Z,2.40
2024-02-22T12:19:59.788Z,2.10
2024-02-22T12:20:59.775Z,2.20
2024-02-22T12:21:59.711Z,2.40
2024-02-22T12:22:59.772Z,2.30
2024-02-22T12:23:59.684Z,2.10
2024-02-22T12:24:59.794Z,2.10
2024-02-22T12:25:59.711Z,2.20
2024-02-22T12:27:05.673Z,2.40
2024-02-22T12:27:59.651Z,2.30
2024-02-22T12:28:59.717Z,2.70
2024-02-22T12:29:59.622Z,2.80
2024-02-22T12:30:59.616Z,2.70
2024-02-22T12:31:59.669Z,3.10
2024-02-22T12:32:59.691Z,2.80
2024-02-22T12:33:59.681Z,2.40
2024-02-22T12:34:59.700Z,3.10
2024-02-22T12:35:59.593Z,3.10
2024-02-22T12:36:59.560Z,3.40
2024-02-22T12:37:59.583Z,3.20
2024-02-22T12:39:00.293Z,3.00
2024-02-22T12:39:59.542Z,2.90
2024-02-22T12:40:59.511Z,2.70
2024-02-22T12:41:59.487Z,2.90
2024-02-22T12:42:59.497Z,2.80
2024-02-22T12:43:59.500Z,2.60
2024-02-22T12:44:59.457Z,2.60
2024-02-22T12:45:59.467Z,2.70
2024-02-22T12:46:59.638Z,2.50
2024-02-22T12:47:59.561Z,2.60
2024-02-22T12:48:59.473Z,2.70
2024-02-22T12:49:59.439Z,2.70
2024-02-22T12:50:59.399Z,2.90
2024-02-22T12:51:59.410Z,3.10
2024-02-22T12:52:59.463Z,2.60
2024-02-22T12:53:59.377Z,2.60
2024-02-22T12:54:59.353Z,2.60
2024-02-22T12:55:59.429Z,2.30
2024-02-22T12:56:59.349Z,2.30
2024-02-22T12:57:59.363Z,2.30
2024-02-22T12:58:59.547Z,2.20
2024-02-22T12:59:59.320Z,2.20
2024-02-22T13:00:59.315Z,2.10
2024-02-22T13:01:59.618Z,2.20
2024-02-22T13:02:59.314Z,1.90
2024-02-22T13:03:59.315Z,2.20
2024-02-22T13:04:59.305Z,2.10
2024-02-22T13:05:59.276Z,2.00
2024-02-22T13:06:59.294Z,2.10
2024-02-22T13:07:59.313Z,2.00
2024-02-22T13:08:59.290Z,2.00
2024-02-22T13:09:59.238Z,2.30
2024-02-22T13:10:59.347Z,2.10
2024-02-22T13:11:59.260Z,2.20
2024-02-22T13:12:59.211Z,2.10
2024-02-22T13:13:59.376Z,2.10
2024-02-22T13:14:59.169Z,1.70
2024-02-22T13:15:59.183Z,2.00
2024-02-22T13:16:59.178Z,2.00
2024-02-22T13:17:59.292Z,1.80